createdAt,value
2018-11-13T00:04:31.810Z,1.50
2018-11-13T00:09:30.175Z,1.60
2018-11-13T00:14:28.619Z,1.60
2018-11-13T00:19:26.985Z,1.40
2018-11-13T00:24:25.407Z,1.67
2018-11-13T00:29:23.812Z,1.73
2018-11-13T00:34:22.222Z,1.53
2018-11-13T00:39:21.025Z,1.60
2018-11-13T00:44:19.117Z,1.60
2018-11-13T00:49:17.529Z,1.43
2018-11-13T00:54:15.984Z,1.60
2018-11-13T00:59:14.370Z,1.73
2018-11-13T01:04:12.822Z,1.70
2018-11-13T01:09:11.282Z,1.60
2018-11-13T01:14:09.681Z,1.80
2018-11-13T01:19:08.039Z,1.70
2018-11-13T01:24:06.491Z,1.73
2018-11-13T01:29:05.102Z,1.77
2018-11-13T01:34:03.698Z,1.80
2018-11-13T01:39:02.082Z,1.60
2018-11-13T01:44:00.527Z,1.73
2018-11-13T01:48:59.013Z,1.87
2018-11-13T01:53:57.508Z,1.90
2018-11-13T01:58:55.868Z,1.90
2018-11-13T02:03:54.269Z,1.80
2018-11-13T02:08:52.643Z,1.80
2018-11-13T02:13:51.062Z,1.93
2018-11-13T02:18:49.421Z,2.00
2018-11-13T02:23:47.868Z,1.80
2018-11-13T02:28:46.342Z,1.60
2018-11-13T02:33:44.859Z,1.87
2018-11-13T02:38:43.238Z,1.67
2018-11-13T02:43:41.767Z,1.83
2018-11-13T02:48:40.145Z,1.63
2018-11-13T02:53:38.560Z,1.60
2018-11-13T02:58:36.957Z,1.60
2018-11-13T03:03:35.322Z,2.00
2018-11-13T03:08:33.766Z,1.67
2018-11-13T03:13:32.120Z,1.80
2018-11-13T03:18:30.483Z,1.87
2018-11-13T03:23:28.925Z,1.70
2018-11-13T03:28:27.288Z,2.07
2018-11-13T03:33:25.709Z,1.80
2018-11-13T03:38:24.078Z,1.80
2018-11-13T03:43:22.522Z,1.70
2018-11-13T03:48:20.883Z,1.77
2018-11-13T03:53:19.414Z,1.57
2018-11-13T03:58:17.776Z,2.10
2018-11-13T04:03:16.184Z,2.10
2018-11-13T04:08:14.536Z,1.70
2018-11-13T04:13:13.036Z,2.10
2018-11-13T04:18:11.465Z,2.20
2018-11-13T04:23:09.907Z,2.10
2018-11-13T04:28:08.329Z,2.03
2018-11-13T04:33:06.792Z,2.07
2018-11-13T04:38:05.178Z,2.10
2018-11-13T04:43:03.890Z,1.90
2018-11-13T04:48:02.246Z,2.23
2018-11-13T04:53:00.731Z,2.30
2018-11-13T04:57:59.089Z,2.17
2018-11-13T05:02:57.558Z,2.33
2018-11-13T05:07:56.001Z,2.40
2018-11-13T05:12:54.363Z,2.23
2018-11-13T05:17:52.788Z,2.10
2018-11-13T05:22:51.199Z,2.30
2018-11-13T05:27:49.570Z,2.40
2018-11-13T05:32:48.066Z,2.30
2018-11-13T05:37:46.913Z,2.30
2018-11-13T05:42:45.419Z,2.73
2018-11-13T05:47:43.921Z,2.13
2018-11-13T05:52:43.229Z,2.70
2018-11-13T05:57:41.611Z,2.50
2018-11-13T06:02:40.076Z,2.10
2018-11-13T06:07:38.455Z,2.20
2018-11-13T06:12:36.874Z,2.37
2018-11-13T06:17:35.247Z,2.30
2018-11-13T06:22:33.684Z,2.07
2018-11-13T06:27:32.065Z,1.90
2018-11-13T06:32:30.598Z,2.00
2018-11-13T06:37:29.044Z,2.20
2018-11-13T06:42:27.409Z,2.13
2018-11-13T06:47:25.777Z,2.00
2018-11-13T06:52:24.135Z,2.13
2018-11-13T06:57:22.594Z,1.60
2018-11-13T07:02:21.277Z,2.03
2018-11-13T07:07:19.654Z,2.10
2018-11-13T07:12:18.023Z,1.57
2018-11-13T07:17:16.454Z,1.70
2018-11-13T07:22:14.918Z,1.40
2018-11-13T07:27:13.378Z,1.50
2018-11-13T07:32:11.753Z,1.43
2018-11-13T07:37:10.257Z,1.50
2018-11-13T07:42:08.601Z,1.57
2018-11-13T07:47:07.077Z,1.47
2018-11-13T07:52:05.400Z,1.70
2018-11-13T07:57:04.050Z,1.53
2018-11-13T08:02:02.665Z,1.10
2018-11-13T08:07:01.174Z,1.20
2018-11-13T08:11:59.543Z,1.40
2018-11-13T08:16:57.933Z,1.27
2018-11-13T08:21:56.292Z,1.20
2018-11-13T08:26:54.724Z,1.60
2018-11-13T08:31:53.122Z,1.23
2018-11-13T08:36:51.518Z,1.20
2018-11-13T08:41:49.917Z,1.33
2018-11-13T08:46:48.379Z,1.37
2018-11-13T08:51:46.738Z,1.20
2018-11-13T08:56:45.231Z,1.20
2018-11-13T09:01:43.842Z,1.07
2018-11-13T09:06:42.287Z,1.37
2018-11-13T09:11:40.740Z,1.40
2018-11-13T09:16:39.069Z,1.20
2018-11-13T09:21:37.483Z,1.20
2018-11-13T09:26:35.880Z,1.23
2018-11-13T09:31:34.309Z,1.10
2018-11-13T09:36:32.740Z,1.30
2018-11-13T09:41:31.094Z,1.10
2018-11-13T09:46:29.459Z,1.20
2018-11-13T09:51:27.821Z,1.17
2018-11-13T09:56:26.356Z,1.00
2018-11-13T10:01:24.797Z,0.90
2018-11-13T10:06:23.174Z,0.90
2018-11-13T10:11:21.581Z,1.03
2018-11-13T10:16:19.993Z,1.13
2018-11-13T10:21:18.357Z,1.13
2018-11-13T10:26:16.799Z,1.30
2018-11-13T10:31:15.121Z,1.37
2018-11-13T10:36:13.537Z,1.00
2018-11-13T10:41:12.037Z,1.17
2018-11-13T10:46:10.331Z,1.20
2018-11-13T10:51:08.754Z,1.03
2018-11-13T10:56:07.905Z,1.20
2018-11-13T11:01:11.650Z,1.27
2018-11-13T11:06:10.202Z,1.20
2018-11-13T11:11:08.681Z,1.00
2018-11-13T11:16:07.045Z,1.20
2018-11-13T11:21:05.400Z,1.20
2018-11-13T11:26:03.862Z,1.00
2018-11-13T11:31:02.264Z,1.83
2018-11-13T11:36:01.102Z,1.60
2018-11-13T11:40:59.489Z,1.23
2018-11-13T11:45:57.955Z,1.10
2018-11-13T11:50:56.314Z,1.43
2018-11-13T11:55:54.738Z,1.03
2018-11-13T12:00:53.190Z,0.97
2018-11-13T12:05:51.556Z,1.37
2018-11-13T12:10:49.966Z,1.30
2018-11-13T12:15:48.321Z,1.57
2018-11-13T12:20:46.673Z,1.50
2018-11-13T12:25:45.193Z,1.60
2018-11-13T12:30:43.486Z,1.47
2018-11-13T12:35:42.010Z,1.87
2018-11-13T12:40:41.625Z,1.10
2018-11-13T12:45:38.832Z,1.47
2018-11-13T12:50:42.757Z,1.07
2018-11-13T12:55:41.213Z,1.30
2018-11-13T13:00:39.534Z,1.23
2018-11-13T13:05:37.930Z,1.10
2018-11-13T13:10:36.305Z,1.60
2018-11-13T13:15:34.666Z,1.57
2018-11-13T13:20:33.140Z,1.10
2018-11-13T13:25:31.645Z,1.60
2018-11-13T13:30:29.980Z,1.63
2018-11-13T13:35:37.326Z,1.30
2018-11-13T13:40:36.398Z,1.80
2018-11-13T13:45:34.864Z,1.80
2018-11-13T13:50:33.233Z,1.60
2018-11-13T13:55:31.625Z,1.80
2018-11-13T14:00:30.308Z,2.00
2018-11-13T14:05:28.626Z,1.63
2018-11-13T14:10:27.020Z,1.77
2018-11-13T14:15:25.509Z,1.67
2018-11-13T14:20:23.926Z,2.00
2018-11-13T14:25:22.373Z,1.40
2018-11-13T14:30:22.465Z,1.77
2018-11-13T14:35:20.927Z,1.70
2018-11-13T14:40:23.290Z,2.00
2018-11-13T14:45:22.786Z,2.07
2018-11-13T14:50:29.013Z,1.90
2018-11-13T14:55:29.113Z,1.80
2018-11-13T15:00:28.711Z,1.73
2018-11-13T15:05:27.759Z,1.50
2018-11-13T15:10:31.041Z,1.90
2018-11-13T15:15:29.450Z,1.83
2018-11-13T15:20:27.896Z,1.80
2018-11-13T15:25:26.350Z,2.07
2018-11-13T15:30:26.705Z,1.87
2018-11-13T15:35:25.163Z,2.90
2018-11-13T15:40:25.010Z,1.90
2018-11-13T15:45:23.538Z,1.80
2018-11-13T15:50:24.181Z,1.60
2018-11-13T15:55:22.629Z,1.77
2018-11-13T16:00:33.560Z,1.60
2018-11-13T16:05:32.681Z,2.00
2018-11-13T16:10:31.038Z,1.70
2018-11-13T16:15:29.827Z,1.60
2018-11-13T16:20:28.488Z,1.90
2018-11-13T16:25:27.296Z,2.17
2018-11-13T16:30:27.121Z,1.50
2018-11-13T16:35:26.587Z,1.53
2018-11-13T16:40:26.374Z,2.10
2018-11-13T16:45:25.601Z,1.53
2018-11-13T16:50:31.802Z,1.67
2018-11-13T16:55:35.756Z,1.70
2018-11-13T17:00:34.292Z,1.90
2018-11-13T17:05:32.820Z,2.20
2018-11-13T17:10:31.613Z,1.83
2018-11-13T17:15:31.066Z,1.83
2018-11-13T17:20:29.507Z,2.10
2018-11-13T17:25:29.461Z,1.83
2018-11-13T17:30:30.067Z,1.70
2018-11-13T17:35:29.357Z,1.73
2018-11-13T17:40:30.063Z,1.50
2018-11-13T17:45:31.653Z,1.73
2018-11-13T17:50:35.268Z,3.17
2018-11-13T17:55:33.791Z,1.83
2018-11-13T18:00:34.259Z,1.93
2018-11-13T18:05:33.133Z,1.43
2018-11-13T18:10:32.555Z,1.80
2018-11-13T18:15:31.354Z,1.83
2018-11-13T18:20:31.685Z,1.80
2018-11-13T18:25:30.284Z,1.50
2018-11-13T18:30:29.699Z,1.67
2018-11-13T18:35:29.444Z,2.17
2018-11-13T18:40:28.042Z,1.70
2018-11-13T18:45:28.635Z,1.30
2018-11-13T18:50:33.255Z,1.60
2018-11-13T18:55:31.834Z,1.70
2018-11-13T19:00:33.436Z,1.67
2018-11-13T19:05:31.881Z,1.90
2018-11-13T19:10:36.305Z,1.80
2018-11-13T19:15:35.567Z,1.50
2018-11-13T19:20:33.930Z,1.30
2018-11-13T19:25:33.262Z,1.37
2018-11-13T19:30:31.682Z,1.67
2018-11-13T19:35:30.317Z,1.53
2018-11-13T19:40:30.776Z,1.70
2018-11-13T19:45:29.232Z,1.50
2018-11-13T19:50:28.938Z,2.10
2018-11-13T19:55:27.942Z,2.00
2018-11-13T20:00:28.623Z,1.70
2018-11-13T20:05:27.716Z,1.47
2018-11-13T20:10:27.202Z,1.70
2018-11-13T20:15:26.546Z,1.60
2018-11-13T20:20:28.026Z,1.90
2018-11-13T20:25:28.798Z,1.90
2018-11-13T20:30:31.293Z,1.50
2018-11-13T20:35:29.880Z,2.00
2018-11-13T20:40:30.633Z,1.87
2018-11-13T20:45:29.078Z,1.70
2018-11-13T20:50:29.942Z,1.77
2018-11-13T20:55:28.362Z,1.60
2018-11-13T21:00:30.026Z,1.43
2018-11-13T21:05:28.507Z,2.17
2018-11-13T21:10:32.357Z,2.07
2018-11-13T21:15:30.734Z,1.87
2018-11-13T21:20:29.145Z,1.77
2018-11-13T21:25:27.978Z,1.77
2018-11-13T21:30:26.582Z,2.00
2018-11-13T21:35:24.934Z,1.60
2018-11-13T21:40:24.542Z,1.53
2018-11-13T21:45:23.838Z,1.60
2018-11-13T21:50:24.471Z,1.90
2018-11-13T21:55:23.994Z,1.50
2018-11-13T22:00:23.846Z,2.13
2018-11-13T22:05:23.054Z,1.43
2018-11-13T22:10:21.465Z,1.50
2018-11-13T22:15:21.162Z,2.00
2018-11-13T22:20:21.126Z,1.53
2018-11-13T22:25:21.170Z,1.60
2018-11-13T22:30:20.804Z,1.70
2018-11-13T22:35:20.014Z,1.82
2018-11-13T22:40:19.526Z,1.67
2018-11-13T22:45:19.527Z,1.62
2018-11-13T22:50:19.265Z,1.50
2018-11-13T22:55:18.050Z,1.33
2018-11-13T23:00:17.616Z,1.50
2018-11-13T23:05:15.650Z,1.97
2018-11-13T23:10:14.705Z,2.10
2018-11-13T23:15:14.499Z,1.65
2018-11-13T23:20:13.837Z,1.70
2018-11-13T23:25:13.352Z,1.90
2018-11-13T23:30:14.789Z,2.07
2018-11-13T23:35:13.721Z,1.80
2018-11-13T23:40:13.528Z,2.27
2018-11-13T23:45:12.687Z,2.07
2018-11-13T23:50:11.274Z,2.10
2018-11-13T23:55:10.683Z,1.90
